Time;durP1;ratioP1;P1;durP2;ratioP2;P2;SDS_P1;SDS_P2;PMS_P1;PMS_P2;Temp;Humidity;BMP_temperature;BMP_pressure;BME280_temperature;BME280_humidity;BME280_pressure;Samples;Min_cycle;Max_cycle;Signal;HPM_P1;HPM_P2
2022/01/02 00:01:50;;;;;;;18.00;11.18;;;;;;;-146.19;100.00;58918.88;5065505;28;20105;-53
2022/01/02 00:04:20;;;;;;;16.73;11.02;;;;;;;-146.19;100.00;58918.88;5086059;28;20529;-56
2022/01/02 00:06:50;;;;;;;18.25;12.85;;;;;;;-146.19;100.00;58918.88;5082040;28;20075;-56
2022/01/02 00:09:31;;;;;;;17.58;11.88;;;;;;;-146.19;100.00;58918.88;5064643;28;20083;-54
2022/01/02 00:12:05;;;;;;;17.52;11.55;;;;;;;-146.19;100.00;58918.88;5058331;28;20084;-56
2022/01/02 00:14:36;;;;;;;15.77;10.80;;;;;;;-146.19;100.00;58918.88;5069412;28;20117;-52
2022/01/02 00:17:16;;;;;;;16.50;10.88;;;;;;;-146.19;100.00;58918.88;5073796;28;20044;-52
2022/01/02 00:19:51;;;;;;;17.00;11.27;;;;;;;-146.19;100.00;58918.88;5063731;28;20064;-55
2022/01/02 00:22:27;;;;;;;14.82;11.00;;;;;;;-146.19;100.00;58918.88;5081518;28;20083;-53
2022/01/02 00:24:57;;;;;;;14.15;10.32;;;;;;;-146.19;100.00;58918.88;5082699;28;20542;-55
2022/01/02 00:27:27;;;;;;;15.40;10.90;;;;;;;-146.19;100.00;58918.88;5064140;27;20065;-55
2022/01/02 00:29:57;;;;;;;15.30;11.02;;;;;;;-146.19;100.00;58918.88;5060730;28;20094;-52
2022/01/02 00:32:27;;;;;;;15.33;10.23;;;;;;;-146.19;100.00;58918.88;5059932;28;20075;-55
2022/01/02 00:34:56;;;;;;;15.70;10.40;;;;;;;-146.19;100.00;58918.88;5057499;28;20075;-55
2022/01/02 00:37:25;;;;;;;16.05;10.30;;;;;;;-146.19;100.00;58918.88;5062356;28;20517;-54
2022/01/02 00:39:54;;;;;;;16.38;10.43;;;;;;;-146.19;100.00;58918.88;5081920;28;23808;-56
2022/01/02 00:42:28;;;;;;;16.20;10.98;;;;;;;-146.19;100.00;58918.88;5080018;28;20507;-53
2022/01/02 00:44:59;;;;;;;16.80;10.93;;;;;;;-146.19;100.00;58918.88;5066948;28;20079;-56
2022/01/02 00:47:32;;;;;;;15.98;10.20;;;;;;;-146.19;100.00;58918.88;5065683;28;20060;-54
2022/01/02 00:50:07;;;;;;;15.23;10.35;;;;;;;-146.19;100.00;58918.88;5067051;27;20158;-54
2022/01/02 00:52:39;;;;;;;16.58;11.10;;;;;;;-146.19;100.00;58918.88;5066141;28;20079;-54
2022/01/02 00:55:11;;;;;;;16.30;10.65;;;;;;;-146.19;100.00;58918.88;5068591;28;20087;-56
2022/01/02 00:57:41;;;;;;;15.10;11.13;;;;;;;-146.19;100.00;58918.88;5082667;28;20063;-51
2022/01/02 01:00:12;;;;;;;16.60;10.82;;;;;;;-146.19;100.00;58918.88;5066989;28;20577;-52
2022/01/02 01:02:45;;;;;;;18.33;11.35;;;;;;;-146.19;100.00;58918.88;5076676;28;20074;-58
2022/01/02 01:05:20;;;;;;;18.02;11.18;;;;;;;-146.19;100.00;58918.88;5078646;28;20083;-54
2022/01/02 01:07:53;;;;;;;15.25;10.45;;;;;;;-146.19;100.00;58918.88;5063052;28;20064;-51
2022/01/02 01:10:23;;;;;;;14.65;10.30;;;;;;;-146.19;100.00;58918.88;5062589;28;20084;-55
2022/01/02 01:12:53;;;;;;;14.98;10.15;;;;;;;-146.19;100.00;58918.88;5064078;28;20087;-57
2022/01/02 01:15:23;;;;;;;14.18;9.75;;;;;;;-146.19;100.00;58918.88;5065213;27;20073;-49
2022/01/02 01:17:54;;;;;;;14.52;9.77;;;;;;;-146.19;100.00;58918.88;5061988;28;20461;-52
2022/01/02 01:20:24;;;;;;;19.25;10.82;;;;;;;-146.19;100.00;58918.88;5055653;28;20072;-51
2022/01/02 01:22:54;;;;;;;13.52;10.60;;;;;;;-146.19;100.00;58918.88;5063666;27;20065;-51
2022/01/02 01:25:23;;;;;;;17.30;10.53;;;;;;;-146.19;100.00;58918.88;5061580;28;20078;-59
2022/01/02 01:27:53;;;;;;;15.65;10.32;;;;;;;-146.19;100.00;58918.88;5086637;28;20513;-53
2022/01/02 01:30:24;;;;;;;14.80;9.93;;;;;;;-146.19;100.00;58918.88;5064688;27;20068;-51
2022/01/02 01:32:53;;;;;;;13.93;10.15;;;;;;;-146.19;100.00;58918.88;5061672;28;20080;-57
2022/01/02 01:35:23;;;;;;;13.82;9.88;;;;;;;-146.19;100.00;58918.88;5073370;28;20493;-52
2022/01/02 01:37:51;;;;;;;13.77;9.57;;;;;;;-146.19;100.00;58918.88;5081698;28;20060;-56
2022/01/02 01:40:22;;;;;;;15.73;10.60;;;;;;;-146.19;100.00;58918.88;5090152;28;20075;-54
2022/01/02 01:42:58;;;;;;;16.13;10.77;;;;;;;-146.19;100.00;58918.88;5080792;28;20123;-57
2022/01/02 01:45:30;;;;;;;16.15;10.60;;;;;;;-146.19;100.00;58918.88;5065853;28;20071;-57
2022/01/02 01:48:00;;;;;;;16.52;10.07;;;;;;;-146.19;100.00;58918.88;5074962;28;20560;-51
2022/01/02 01:50:31;;;;;;;14.52;9.23;;;;;;;-146.19;100.00;58918.88;5081921;28;20067;-54
2022/01/02 01:52:59;;;;;;;13.35;9.55;;;;;;;-146.19;100.00;58918.88;5078158;28;20079;-51
2022/01/02 01:55:34;;;;;;;14.40;10.15;;;;;;;-146.19;100.00;58918.88;5063084;28;20076;-55
2022/01/02 01:58:03;;;;;;;14.77;10.13;;;;;;;-146.19;100.00;58918.88;5063699;28;21002;-55
2022/01/02 02:00:33;;;;;;;14.90;10.48;;;;;;;-146.19;100.00;58918.88;5063340;28;20071;-56
2022/01/02 02:03:03;;;;;;;14.05;9.85;;;;;;;-146.19;100.00;58918.88;5078107;28;20060;-57
2022/01/02 02:05:32;;;;;;;13.88;9.50;;;;;;;-146.19;100.00;58918.88;5074098;28;20083;-55
2022/01/02 02:08:00;;;;;;;15.52;9.38;;;;;;;-146.19;100.00;58918.88;5062580;28;20083;-55
2022/01/02 02:10:35;;;;;;;15.30;10.23;;;;;;;-146.19;100.00;58918.88;5065312;28;20565;-57
2022/01/02 02:13:05;;;;;;;13.75;9.85;;;;;;;-146.19;100.00;58918.88;5087915;28;20086;-52
2022/01/02 02:15:34;;;;;;;11.60;8.32;;;;;;;-146.19;100.00;58918.88;5083505;28;20083;-55
2022/01/02 02:18:02;;;;;;;12.95;9.43;;;;;;;-146.19;100.00;58918.88;5087078;28;20080;-53
2022/01/02 02:20:35;;;;;;;15.45;9.40;;;;;;;-146.19;100.00;58918.88;5084315;27;20078;-53
2022/01/02 02:23:05;;;;;;;11.75;9.40;;;;;;;-146.19;100.00;58918.88;5078992;28;20056;-56
2022/01/02 02:25:43;;;;;;;14.30;9.80;;;;;;;-146.19;100.00;58918.88;5066402;27;20116;-54
2022/01/02 02:28:13;;;;;;;15.13;9.68;;;;;;;-146.19;100.00;58918.88;5087750;28;20051;-57
2022/01/02 02:30:44;;;;;;;13.85;9.68;;;;;;;-146.19;100.00;58918.88;5083171;28;20527;-54
2022/01/02 02:33:13;;;;;;;13.20;9.40;;;;;;;-146.19;100.00;58918.88;5069802;27;20072;-53
2022/01/02 02:35:44;;;;;;;14.52;10.35;;;;;;;-146.19;100.00;58918.88;5066399;28;20060;-51
2022/01/02 02:38:13;;;;;;;12.52;9.07;;;;;;;-146.19;100.00;58918.88;5068654;28;20064;-54
2022/01/02 02:40:42;;;;;;;12.05;8.77;;;;;;;-146.19;100.00;58918.88;5083625;28;20107;-53
2022/01/02 02:43:24;;;;;;;13.98;9.15;;;;;;;-146.19;100.00;58918.88;5062404;28;20568;-52
2022/01/02 02:51:38;;;;;;;13.40;8.50;;;;;;;-146.19;100.00;58918.88;5062350;28;20561;-54
2022/01/02 02:54:07;;;;;;;14.82;9.30;;;;;;;-146.19;100.00;58918.88;5061596;28;20072;-51
2022/01/02 02:56:44;;;;;;;14.05;8.90;;;;;;;-146.19;100.00;58918.88;5057397;27;20135;-51
2022/01/02 02:59:13;;;;;;;13.18;8.63;;;;;;;-146.19;100.00;58918.88;5068261;28;20079;-53
2022/01/02 03:01:42;;;;;;;12.80;8.77;;;;;;;-146.19;100.00;58918.88;5081854;28;20074;-56
2022/01/02 03:04:11;;;;;;;12.77;8.63;;;;;;;-146.19;100.00;58918.88;5086417;28;20544;-57
2022/01/02 03:06:41;;;;;;;12.65;8.90;;;;;;;-146.19;100.00;58918.88;5062478;28;20483;-52
2022/01/02 03:09:10;;;;;;;11.67;8.53;;;;;;;-146.19;100.00;58918.88;5062351;28;20091;-56
2022/01/02 03:11:40;;;;;;;13.82;8.85;;;;;;;-146.19;100.00;58918.88;5059943;28;20502;-53
2022/01/02 03:14:11;;;;;;;12.10;8.07;;;;;;;-146.19;100.00;58918.88;5060051;28;20090;-51
2022/01/02 03:16:40;;;;;;;14.05;8.90;;;;;;;-146.19;100.00;58918.88;5059763;28;20084;-54
2022/01/02 03:19:09;;;;;;;11.30;8.75;;;;;;;-146.19;100.00;58918.88;5063751;28;20088;-57
2022/01/02 03:21:37;;;;;;;12.05;8.50;;;;;;;-146.19;100.00;58918.88;5058784;28;20081;-55
2022/01/02 03:24:07;;;;;;;13.15;8.85;;;;;;;-146.19;100.00;58918.88;5060354;28;20056;-51
2022/01/02 03:26:35;;;;;;;11.17;8.47;;;;;;;-146.19;100.00;58918.88;5058659;27;20553;-49
2022/01/02 03:29:04;;;;;;;13.80;9.30;;;;;;;-146.19;100.00;58918.88;5061938;28;20494;-53
2022/01/02 03:31:32;;;;;;;14.45;9.10;;;;;;;-146.19;100.00;58918.88;5079653;28;20091;-53
2022/01/02 03:34:01;;;;;;;12.00;8.88;;;;;;;-146.19;100.00;58918.88;5063077;28;20080;-57
2022/01/02 03:36:29;;;;;;;13.63;8.68;;;;;;;-146.19;100.00;58918.88;5056138;28;20076;-55
2022/01/02 03:38:57;;;;;;;13.75;9.10;;;;;;;-146.19;100.00;58918.88;5058623;28;20065;-57
2022/01/02 03:41:27;;;;;;;10.63;7.68;;;;;;;-146.19;100.00;58918.88;5058678;28;20538;-49
2022/01/02 03:43:56;;;;;;;12.48;8.50;;;;;;;-146.19;100.00;58918.88;5070732;27;20071;-56
2022/01/02 03:46:25;;;;;;;12.90;8.40;;;;;;;-146.19;100.00;58918.88;5084224;28;20079;-53
2022/01/02 03:48:53;;;;;;;12.10;8.90;;;;;;;-146.19;100.00;58918.88;5085779;28;20087;-52
2022/01/02 03:51:22;;;;;;;12.30;8.82;;;;;;;-146.19;100.00;58918.88;5064019;28;20068;-55
2022/01/02 03:53:50;;;;;;;13.48;9.00;;;;;;;-146.19;100.00;58918.88;5061298;28;20112;-51
2022/01/02 03:56:18;;;;;;;14.43;9.00;;;;;;;-146.19;100.00;58918.88;5062454;27;20064;-52
2022/01/02 03:58:48;;;;;;;12.95;8.75;;;;;;;-146.19;100.00;58918.88;5059801;28;20075;-53
2022/01/02 04:01:17;;;;;;;11.33;8.57;;;;;;;-146.19;100.00;58918.88;5065027;28;20137;-54
2022/01/02 04:03:45;;;;;;;11.50;7.72;;;;;;;-146.19;100.00;58918.88;5079255;28;20060;-53
2022/01/02 04:06:14;;;;;;;11.65;8.00;;;;;;;-146.19;100.00;58918.88;5079179;28;20307;-52
2022/01/02 04:08:42;;;;;;;11.23;8.10;;;;;;;-146.19;100.00;58918.88;5082232;28;20063;-53
2022/01/02 04:11:11;;;;;;;12.10;8.65;;;;;;;-146.19;100.00;58918.88;5080993;28;20072;-54
2022/01/02 04:13:39;;;;;;;11.15;8.48;;;;;;;-146.19;100.00;58918.88;5081383;28;20558;-56
2022/01/02 04:16:09;;;;;;;10.93;8.43;;;;;;;-146.19;100.00;58918.88;5087523;28;20862;-50
2022/01/02 04:18:37;;;;;;;9.80;8.00;;;;;;;-146.19;100.00;58918.88;5080585;28;20064;-56
2022/01/02 04:21:06;;;;;;;11.48;8.10;;;;;;;-146.19;100.00;58918.88;5068131;27;20064;-55
2022/01/02 04:23:35;;;;;;;11.73;8.07;;;;;;;-146.19;100.00;58918.88;5062356;28;20079;-51
2022/01/02 04:26:04;;;;;;;11.57;8.48;;;;;;;-146.19;100.00;58918.88;5062773;28;20060;-54
2022/01/02 04:28:32;;;;;;;11.73;7.90;;;;;;;-146.19;100.00;58918.88;5064513;28;20079;-55
2022/01/02 04:31:01;;;;;;;11.90;8.30;;;;;;;-146.19;100.00;58918.88;5066984;28;20084;-51
2022/01/02 04:33:31;;;;;;;12.45;8.32;;;;;;;-146.19;100.00;58918.88;5060874;28;20077;-56
2022/01/02 04:35:59;;;;;;;10.80;8.03;;;;;;;-146.19;100.00;58918.88;5076547;28;20063;-53
2022/01/02 04:38:27;;;;;;;13.75;8.70;;;;;;;-146.19;100.00;58918.88;5084842;27;20510;-53
2022/01/02 04:40:56;;;;;;;11.52;7.82;;;;;;;-146.19;100.00;58918.88;5080131;27;20098;-51
2022/01/02 04:43:24;;;;;;;13.70;8.02;;;;;;;-146.19;100.00;58918.88;5062233;28;20076;-50
2022/01/02 04:45:53;;;;;;;11.30;8.57;;;;;;;-146.19;100.00;58918.88;5094077;28;20508;-51
2022/01/02 04:48:21;;;;;;;12.52;8.80;;;;;;;-146.19;100.00;58918.88;5086639;28;20060;-55
2022/01/02 04:50:51;;;;;;;10.93;8.50;;;;;;;-146.19;100.00;58918.88;5087166;28;21739;-52
2022/01/02 04:53:21;;;;;;;10.88;8.20;;;;;;;-146.19;100.00;58918.88;5087390;27;20063;-56
2022/01/02 04:55:50;;;;;;;11.77;8.10;;;;;;;-146.19;100.00;58918.88;5087222;27;20059;-55
2022/01/02 04:58:19;;;;;;;11.98;8.20;;;;;;;-146.19;100.00;58918.88;5090129;28;20082;-54
2022/01/02 05:00:47;;;;;;;12.40;8.77;;;;;;;-146.19;100.00;58918.88;5061391;28;20399;-49
2022/01/02 05:03:16;;;;;;;10.63;8.20;;;;;;;-146.19;100.00;58918.88;5061202;28;20468;-54
2022/01/02 05:05:44;;;;;;;12.35;8.18;;;;;;;-146.19;100.00;58918.88;5064463;28;20071;-52
2022/01/02 05:08:14;;;;;;;10.35;7.90;;;;;;;-146.19;100.00;58918.88;5075985;28;20067;-55
2022/01/02 05:10:42;;;;;;;11.60;8.50;;;;;;;-146.19;100.00;58918.88;5083780;28;20188;-57
2022/01/02 05:13:10;;;;;;;12.63;8.45;;;;;;;-146.19;100.00;58918.88;5067312;28;20104;-53
2022/01/02 05:15:39;;;;;;;12.75;8.75;;;;;;;-146.19;100.00;58918.88;5081398;28;20068;-51
2022/01/02 05:18:10;;;;;;;10.60;8.30;;;;;;;-146.19;100.00;58918.88;5085772;27;20044;-52
2022/01/02 05:20:39;;;;;;;12.60;8.57;;;;;;;-146.19;100.00;58918.88;5082957;28;20082;-53
2022/01/02 05:23:07;;;;;;;13.05;8.80;;;;;;;-146.19;100.00;58918.88;5084964;28;20083;-50
2022/01/02 05:25:37;;;;;;;12.13;7.88;;;;;;;-146.19;100.00;58918.88;5084314;27;20692;-54
2022/01/02 05:28:06;;;;;;;10.20;7.93;;;;;;;-146.19;100.00;58918.88;5088141;28;20084;-48
2022/01/02 05:30:34;;;;;;;11.13;7.70;;;;;;;-146.19;100.00;58918.88;5083368;28;20075;-52
2022/01/02 05:33:02;;;;;;;11.35;8.05;;;;;;;-146.19;100.00;58918.88;5085830;28;20107;-55
2022/01/02 05:35:31;;;;;;;13.52;7.88;;;;;;;-146.19;100.00;58918.88;5081103;28;20603;-50
2022/01/02 05:38:00;;;;;;;10.18;7.75;;;;;;;-146.19;100.00;58918.88;5078105;27;20542;-55
2022/01/02 05:40:31;;;;;;;13.38;8.98;;;;;;;-146.19;100.00;58918.88;5065261;28;20088;-51
2022/01/02 05:43:01;;;;;;;10.00;8.00;;;;;;;-146.19;100.00;58918.88;5065610;28;20307;-49
2022/01/02 05:45:29;;;;;;;14.57;8.20;;;;;;;-146.19;100.00;58918.88;5080267;28;20470;-54
2022/01/02 05:47:58;;;;;;;11.05;7.90;;;;;;;-146.19;100.00;58918.88;5071268;28;20558;-54
2022/01/02 05:50:26;;;;;;;11.82;8.13;;;;;;;-146.19;100.00;58918.88;5065134;28;20064;-54
2022/01/02 05:52:55;;;;;;;9.80;7.80;;;;;;;-146.19;100.00;58918.88;5063040;28;20085;-51
2022/01/02 05:55:23;;;;;;;9.93;8.02;;;;;;;-146.19;100.00;58918.88;5065050;28;20482;-55
2022/01/02 05:57:52;;;;;;;12.77;8.18;;;;;;;-146.19;100.00;58918.88;5083922;28;20117;-53
2022/01/02 06:00:22;;;;;;;10.73;8.10;;;;;;;-146.19;100.00;58918.88;5065996;27;20076;-50
2022/01/02 06:02:53;;;;;;;13.07;7.78;;;;;;;-146.19;100.00;58918.88;5079244;27;20134;-54
2022/01/02 06:05:21;;;;;;;10.70;7.88;;;;;;;-146.19;100.00;58918.88;5087381;27;20068;-50
2022/01/02 06:07:50;;;;;;;12.50;8.05;;;;;;;-146.19;100.00;58918.88;5083174;28;20060;-57
2022/01/02 06:10:18;;;;;;;9.52;7.15;;;;;;;-146.19;100.00;58918.88;5066069;28;20110;-54
2022/01/02 06:12:47;;;;;;;10.63;7.65;;;;;;;-146.19;100.00;58918.88;5063917;28;20052;-52
2022/01/02 06:15:15;;;;;;;9.80;7.40;;;;;;;-146.19;100.00;58918.88;5062163;27;20652;-50
2022/01/02 06:17:45;;;;;;;8.63;7.40;;;;;;;-146.19;100.00;58918.88;5078259;27;20063;-56
2022/01/02 06:20:13;;;;;;;11.43;7.37;;;;;;;-146.19;100.00;58918.88;5076827;27;20482;-53
2022/01/02 06:22:42;;;;;;;10.88;7.43;;;;;;;-146.19;100.00;58918.88;5062257;28;21028;-54
2022/01/02 06:25:10;;;;;;;11.32;7.60;;;;;;;-146.19;100.00;58918.88;5060819;28;20068;-56
2022/01/02 06:27:39;;;;;;;11.27;7.90;;;;;;;-146.19;100.00;58918.88;5061920;28;20083;-51
2022/01/02 06:30:09;;;;;;;12.45;7.30;;;;;;;-146.19;100.00;58918.88;5064306;28;20135;-52
2022/01/02 06:32:37;;;;;;;11.63;7.90;;;;;;;-146.19;100.00;58918.88;5060426;28;20068;-52
2022/01/02 06:35:08;;;;;;;10.98;7.85;;;;;;;-146.19;100.00;58918.88;5062238;28;20079;-60
2022/01/02 06:37:36;;;;;;;10.80;7.50;;;;;;;-146.19;100.00;58918.88;5062676;28;20087;-54
2022/01/02 06:40:06;;;;;;;9.25;7.65;;;;;;;-146.19;100.00;58918.88;5063913;28;20083;-56
2022/01/02 06:42:34;;;;;;;8.95;7.03;;;;;;;-146.19;100.00;58918.88;5063087;28;20072;-53
2022/01/02 06:45:02;;;;;;;9.80;7.28;;;;;;;-146.19;100.00;58918.88;5061763;28;20095;-58
2022/01/02 06:47:31;;;;;;;9.32;7.10;;;;;;;-146.19;100.00;58918.88;5060684;28;20147;-56
2022/01/02 06:49:59;;;;;;;8.68;7.15;;;;;;;-146.19;100.00;58918.88;5059328;28;20068;-59
2022/01/02 06:52:29;;;;;;;8.82;6.97;;;;;;;-146.19;100.00;58918.88;5062714;28;20095;-58
2022/01/02 06:54:58;;;;;;;11.63;7.03;;;;;;;-146.19;100.00;58918.88;5063653;28;20091;-58
2022/01/02 06:57:26;;;;;;;7.82;6.65;;;;;;;-146.19;100.00;58918.88;5079176;28;20066;-59
2022/01/02 06:59:54;;;;;;;8.20;6.47;;;;;;;-146.19;100.00;58918.88;5082968;28;20083;-56
2022/01/02 07:02:23;;;;;;;11.07;6.55;;;;;;;-146.19;100.00;58918.88;5074630;27;20778;-58
2022/01/02 07:04:51;;;;;;;8.88;6.60;;;;;;;-146.19;100.00;58918.88;5064914;28;20068;-56
2022/01/02 07:07:20;;;;;;;7.95;6.28;;;;;;;-146.19;100.00;58918.88;5066377;28;20481;-54
2022/01/02 07:09:50;;;;;;;7.43;6.18;;;;;;;-146.19;100.00;58918.88;5080366;28;20269;-57
2022/01/02 07:12:18;;;;;;;8.57;6.40;;;;;;;-146.19;100.00;58918.88;5057557;28;20056;-58
2022/01/02 07:14:47;;;;;;;9.15;6.90;;;;;;;-146.19;100.00;58918.88;5062226;28;20060;-57
2022/01/02 07:17:15;;;;;;;9.18;6.65;;;;;;;-146.19;100.00;58918.88;5068768;28;20063;-58
2022/01/02 07:19:43;;;;;;;7.30;6.07;;;;;;;-146.19;100.00;58918.88;5082681;28;20055;-58
2022/01/02 07:22:12;;;;;;;7.93;6.20;;;;;;;-146.19;100.00;58918.88;5084274;28;20078;-58
2022/01/02 07:24:40;;;;;;;8.25;6.13;;;;;;;-146.19;100.00;58918.88;5060782;28;20079;-54
2022/01/02 07:27:12;;;;;;;7.07;5.97;;;;;;;-146.19;100.00;58918.88;5062617;28;20451;-55
2022/01/02 07:29:40;;;;;;;7.28;6.22;;;;;;;-146.19;100.00;58918.88;5063072;28;20068;-53
2022/01/02 07:32:09;;;;;;;9.02;6.65;;;;;;;-146.19;100.00;58918.88;5060647;28;20067;-56
2022/01/02 07:34:37;;;;;;;7.40;5.97;;;;;;;-146.19;100.00;58918.88;5060771;28;20080;-56
2022/01/02 07:37:06;;;;;;;6.78;5.78;;;;;;;-146.19;100.00;58918.88;5082032;28;20075;-52
2022/01/02 07:39:34;;;;;;;7.15;5.57;;;;;;;-146.19;100.00;58918.88;5084479;28;20075;-55
2022/01/02 07:42:04;;;;;;;8.15;6.13;;;;;;;-146.19;100.00;58918.88;5066578;28;20115;-57
2022/01/02 07:44:37;;;;;;;6.93;5.78;;;;;;;-146.19;100.00;58918.88;5062527;28;20082;-58
2022/01/02 07:47:07;;;;;;;6.82;5.43;;;;;;;-146.19;100.00;58918.88;5061192;28;20072;-51
2022/01/02 07:49:35;;;;;;;8.98;5.60;;;;;;;-146.19;100.00;58918.88;5060277;28;20076;-57
2022/01/02 07:52:04;;;;;;;5.93;5.20;;;;;;;-146.19;100.00;58918.88;5061908;28;20084;-51
2022/01/02 07:54:33;;;;;;;7.50;4.80;;;;;;;-146.19;100.00;58918.88;5079637;28;20098;-52
2022/01/02 07:57:01;;;;;;;6.95;5.10;;;;;;;-146.19;100.00;58918.88;5068289;28;20514;-54
2022/01/02 07:59:30;;;;;;;7.22;5.38;;;;;;;-146.19;100.00;58918.88;5064058;28;20068;-54
2022/01/02 08:02:07;;;;;;;4.88;4.00;;;;;;;-146.19;100.00;58918.88;5066607;28;20064;-53
2022/01/02 08:04:36;;;;;;;4.95;4.30;;;;;;;-146.19;100.00;58918.88;5065806;28;20472;-53
2022/01/02 08:07:04;;;;;;;5.35;4.60;;;;;;;-146.19;100.00;58918.88;5063033;28;20462;-56
2022/01/02 08:09:33;;;;;;;4.78;4.03;;;;;;;-146.19;100.00;58918.88;5081620;28;20174;-51
2022/01/02 08:12:01;;;;;;;4.25;3.85;;;;;;;-146.19;100.00;58918.88;5069107;27;20072;-55
2022/01/02 08:14:29;;;;;;;4.07;3.30;;;;;;;-146.19;100.00;58918.88;5069699;28;20086;-51
2022/01/02 08:16:58;;;;;;;4.18;3.72;;;;;;;-146.19;100.00;58918.88;5073996;28;20071;-50
2022/01/02 08:19:28;;;;;;;4.95;3.88;;;;;;;-146.19;100.00;58918.88;5050774;28;20080;-55
2022/01/02 08:21:57;;;;;;;4.50;4.10;;;;;;;-146.19;100.00;58918.88;5063319;28;20090;-51
2022/01/02 08:24:25;;;;;;;5.13;3.65;;;;;;;-146.19;100.00;58918.88;5058731;28;20451;-55
2022/01/02 08:26:53;;;;;;;4.00;3.55;;;;;;;-146.19;100.00;58918.88;5060396;28;20060;-55
2022/01/02 08:29:22;;;;;;;3.97;3.58;;;;;;;-146.19;100.00;58918.88;5066334;28;20055;-58
2022/01/02 08:31:50;;;;;;;4.20;3.80;;;;;;;-146.19;100.00;58918.88;5074036;28;20064;-50
2022/01/02 08:34:19;;;;;;;3.92;3.63;;;;;;;-146.19;100.00;58918.88;5062104;28;20264;-53
2022/01/02 08:36:48;;;;;;;4.20;3.60;;;;;;;-146.19;100.00;58918.88;5055968;28;21393;-55
2022/01/02 08:39:17;;;;;;;4.10;3.70;;;;;;;-146.19;100.00;58918.88;5058274;28;20075;-54
2022/01/02 08:41:45;;;;;;;3.55;3.25;;;;;;;-146.19;100.00;58918.88;5057016;28;20490;-56
2022/01/02 08:44:14;;;;;;;3.50;3.20;;;;;;;-146.19;100.00;58918.88;5058073;28;20080;-55
2022/01/02 08:46:42;;;;;;;4.03;3.63;;;;;;;-146.19;100.00;58918.88;5062212;28;20080;-52
2022/01/02 08:49:11;;;;;;;5.88;3.88;;;;;;;-146.19;100.00;58918.88;5080196;28;20079;-54
2022/01/02 08:51:39;;;;;;;6.63;4.20;;;;;;;-146.19;100.00;58918.88;5058418;28;20068;-53
2022/01/02 08:54:09;;;;;;;5.88;3.80;;;;;;;-146.19;100.00;58918.88;5074235;28;20060;-55
2022/01/02 08:56:37;;;;;;;5.03;3.77;;;;;;;-146.19;100.00;58918.88;5083307;28;20071;-54
2022/01/02 08:59:06;;;;;;;4.20;3.65;;;;;;;-146.19;100.00;58918.88;5074906;28;20482;-55
2022/01/02 09:01:34;;;;;;;5.60;4.13;;;;;;;-146.19;100.00;58918.88;5058341;28;20087;-50
2022/01/02 09:04:02;;;;;;;7.88;4.40;;;;;;;-146.19;100.00;58918.88;5062774;28;20161;-52
2022/01/02 09:06:31;;;;;;;4.85;4.30;;;;;;;-146.19;100.00;58918.88;5080924;28;20071;-57
2022/01/02 09:09:00;;;;;;;3.78;3.45;;;;;;;-146.19;100.00;58918.88;5085316;28;20068;-57
2022/01/02 09:11:29;;;;;;;4.00;3.53;;;;;;;-146.19;100.00;58918.88;5075541;28;20060;-54
2022/01/02 09:13:59;;;;;;;4.35;3.42;;;;;;;-146.19;100.00;58918.88;5066167;28;20064;-55
2022/01/02 09:16:27;;;;;;;4.70;3.50;;;;;;;-146.19;100.00;58918.88;5079204;28;20075;-52
2022/01/02 09:18:55;;;;;;;5.13;4.20;;;;;;;-146.19;100.00;58918.88;5067839;28;20080;-55
2022/01/02 09:21:24;;;;;;;5.10;3.80;;;;;;;-146.19;100.00;58918.88;5075553;27;20063;-58
2022/01/02 09:23:52;;;;;;;3.58;3.25;;;;;;;-146.19;100.00;58918.88;5067525;28;20072;-53
2022/01/02 09:26:20;;;;;;;4.72;3.85;;;;;;;-146.19;100.00;58918.88;5062873;28;20076;-60
2022/01/02 09:28:50;;;;;;;4.95;4.43;;;;;;;-146.19;100.00;58918.88;5061927;28;20697;-54
2022/01/02 09:31:19;;;;;;;10.65;6.80;;;;;;;-146.19;100.00;58918.88;5066201;28;20081;-52
2022/01/02 09:33:47;;;;;;;6.32;4.70;;;;;;;-146.19;100.00;58918.88;5061528;28;20091;-52
2022/01/02 09:36:16;;;;;;;5.28;4.28;;;;;;;-146.19;100.00;58918.88;5066058;28;20099;-54
2022/01/02 09:38:44;;;;;;;7.00;4.80;;;;;;;-146.19;100.00;58918.88;5063559;28;20088;-54
2022/01/02 09:41:13;;;;;;;9.27;7.70;;;;;;;-146.19;100.00;58918.88;5079754;28;20056;-56
2022/01/02 13:18:10;;;;;;;6.18;4.05;;;;;;;13.32;100.00;96524.13;5029291;28;20637;-50
2022/01/02 13:20:43;;;;;;;6.72;4.32;;;;;;;13.60;100.00;96524.75;5002605;28;20069;-52
2022/01/02 13:23:11;;;;;;;6.00;4.25;;;;;;;13.68;100.00;96530.06;4998144;28;20073;-54
2022/01/02 13:25:41;;;;;;;4.72;4.20;;;;;;;13.73;100.00;96533.06;4999569;28;20074;-52
2022/01/02 13:28:11;;;;;;;4.40;4.00;;;;;;;13.82;100.00;96537.38;5003667;28;20097;-58
2022/01/02 13:30:49;;;;;;;5.15;4.47;;;;;;;13.98;100.00;96542.72;5000152;28;20065;-57
2022/01/02 13:33:21;;;;;;;4.10;3.75;;;;;;;14.14;100.00;96530.44;5000107;28;20092;-53
2022/01/02 13:35:50;;;;;;;4.85;4.28;;;;;;;14.19;100.00;96539.56;5011295;28;20123;-52
2022/01/02 13:38:19;;;;;;;5.55;4.63;;;;;;;14.30;100.00;96526.97;5021593;28;20547;-54
2022/01/02 13:40:49;;;;;;;4.82;4.32;;;;;;;14.42;100.00;96523.84;5021312;28;20069;-54
2022/01/02 13:43:20;;;;;;;5.23;4.23;;;;;;;13.77;100.00;96505.25;5020919;28;20081;-57
2022/01/02 13:45:49;;;;;;;5.68;4.38;;;;;;;14.19;100.00;96520.19;5025561;28;20488;-55
2022/01/02 13:48:21;;;;;;;5.38;4.10;;;;;;;13.88;100.00;96504.91;5016575;28;20065;-56
2022/01/02 13:50:52;;;;;;;6.95;4.30;;;;;;;14.41;100.00;96511.53;5019482;28;20530;-53
2022/01/02 13:53:22;;;;;;;5.60;4.82;;;;;;;14.09;100.00;96528.28;5014380;28;20466;-54
2022/01/02 13:55:52;;;;;;;7.63;4.38;;;;;;;14.29;100.00;96528.81;5022803;28;20582;-55
2022/01/02 13:58:22;;;;;;;3.92;3.25;;;;;;;13.74;100.00;96510.84;5024742;28;20081;-50
2022/01/02 14:00:53;;;;;;;5.47;4.20;;;;;;;14.10;100.00;96518.50;5019770;28;20360;-54
2022/01/02 14:03:27;;;;;;;4.18;3.50;;;;;;;14.16;100.00;96526.63;5018595;28;20069;-55
2022/01/02 14:05:56;;;;;;;5.53;3.58;;;;;;;14.09;100.00;96532.78;5018841;28;20481;-53
2022/01/02 14:08:25;;;;;;;2.45;2.25;;;;;;;14.23;89.04;96518.84;5017552;28;20073;-49
2022/01/02 14:11:04;;;;;;;2.30;2.10;;;;;;;14.29;99.93;96528.81;5019975;28;20472;-53
2022/01/02 14:13:36;;;;;;;2.33;2.08;;;;;;;14.46;89.59;96530.44;5026716;28;20497;-54
2022/01/02 14:16:05;;;;;;;2.50;2.10;;;;;;;14.70;77.08;96520.84;5014972;28;20469;-54
2022/01/02 14:18:35;;;;;;;2.03;1.90;;;;;;;14.58;74.22;96530.97;5018376;28;20122;-56
2022/01/02 14:21:03;;;;;;;2.05;1.88;;;;;;;14.68;62.71;96528.94;5022192;28;20065;-55
2022/01/02 14:23:32;;;;;;;2.03;1.92;;;;;;;14.56;76.76;96524.19;5016965;28;20081;-50
2022/01/02 14:26:00;;;;;;;4.57;2.10;;;;;;;14.63;73.46;96523.34;5017447;28;20057;-55
2022/01/02 14:28:29;;;;;;;2.70;2.20;;;;;;;14.45;68.04;96512.88;5017070;28;20550;-56
2022/01/02 14:30:57;;;;;;;2.90;2.08;;;;;;;14.53;74.55;96509.41;5002067;28;20108;-57
2022/01/02 14:33:25;;;;;;;2.20;2.00;;;;;;;14.62;69.66;96502.25;5014456;28;20072;-51
2022/01/02 14:35:55;;;;;;;2.28;2.00;;;;;;;14.57;69.25;96491.34;5012388;28;20084;-56
2022/01/02 14:38:24;;;;;;;1.90;1.80;;;;;;;14.60;64.11;96480.38;5005525;28;20540;-53
2022/01/02 14:40:54;;;;;;;2.55;2.35;;;;;;;14.73;60.43;96486.00;5013073;28;20065;-55
2022/01/02 14:43:23;;;;;;;2.33;2.13;;;;;;;14.63;57.59;96469.44;5005380;28;20595;-55
2022/01/02 14:45:51;;;;;;;2.92;1.92;;;;;;;14.92;57.13;96476.81;5005165;28;20740;-55
2022/01/02 14:48:22;;;;;;;2.30;2.10;;;;;;;14.69;58.31;96482.00;5009857;28;20080;-58
2022/01/02 14:50:51;;;;;;;4.68;2.30;;;;;;;14.66;64.92;96487.69;5005205;28;20453;-58
2022/01/02 14:53:21;;;;;;;3.47;2.15;;;;;;;14.62;58.29;96486.34;5004827;28;20065;-56
2022/01/02 14:55:49;;;;;;;3.58;2.20;;;;;;;14.49;60.89;96479.72;5005340;28;21886;-57
2022/01/02 14:58:18;;;;;;;2.40;2.20;;;;;;;14.53;58.03;96476.75;5005635;28;20092;-58